Flight Track Log - Related Links

Times and Time Zones

All times are in EDT time to prevent confusion due to time zone crossing. See the LYM1725 flight status page for this flight to view local times or setup timezone preferences in your user account.

Time Position Orientation Groundspeed Altitude Reporting Facility
EDT Latitude Longitude Course Direction KTS MPH feet Rate Location/Type
Tue 09:24:17 PM 43.0231 -108.4164 100° East 196 226 9,300  Level Denver Center
Tue 09:25:18 PM 43.0128 -108.3406 100° East 213 245 10,700 1,415 Climbing Denver Center
Tue 09:26:20 PM 42.9811 -108.2728 123° Southeast 211 243 12,200 1,512 Climbing Denver Center
Tue 09:27:21 PM 42.9414 -108.2008 127° Southeast 211 243 13,800 1,276 Climbing Denver Center
Tue 09:28:27 PM 42.9136 -108.1389 121° Southeast 206 237 14,900 1,134 Climbing Salt Lake Center
Tue 09:29:28 PM 42.8739 -108.0669 127° Southeast 210 242 16,200 1,122 Climbing Salt Lake Center
Tue 09:30:30 PM 42.8414 -107.9975 123° Southeast 218 251 17,200 1,024 Climbing Salt Lake Center
Tue 09:31:31 PM 42.8097 -107.9131 117° Southeast 223 257 18,300 1,131 Climbing Salt Lake Center
Tue 09:32:32 PM 42.7747 -107.8369 122° Southeast 227 261 19,500 927 Climbing Salt Lake Center
Tue 09:33:34 PM 42.7450 -107.7764 124° Southeast 222 255 20,200 732 Climbing Salt Lake Center
Tue 09:34:35 PM 42.6994 -107.7022 130° Southeast 226 260 21,000 390 Climbing Salt Lake Center
Tue 09:35:37 PM 42.6539 -107.6356 133° Southeast 244 281 21,000  Level Salt Lake Center
Tue 09:36:38 PM 42.6072 -107.5636 131° Southeast 262 302 21,000  Level Salt Lake Center
Tue 09:37:39 PM 42.5542 -107.4764 130° Southeast 266 306 21,000  Level Salt Lake Center
Tue 09:38:41 PM 42.5122 -107.3981 126° Southeast 268 308 21,000  Level Salt Lake Center
Tue 09:39:27 PM 42.4831 -107.3436 126° Southeast 274 315 21,000  Level Denver Center
Tue 09:40:29 PM 42.4222 -107.2417 129° Southeast 273 314 21,000  Level Denver Center
Tue 09:41:31 PM 42.3767 -107.1669 130° Southeast 269 310 21,000  Level Denver Center
Tue 09:42:32 PM 42.3261 -107.0806 128° Southeast 263 303 21,000  Level Denver Center
Tue 09:43:34 PM 42.2836 -107.0067 128° Southeast 261 300 21,000 48 Level Denver Center
Tue 09:44:36 PM 42.2422 -106.9319 127° Southeast 260 299 21,100  Climbing Denver Center
Tue 09:45:37 PM 42.1928 -106.8472 128° Southeast 257 296 21,000 -49 Descending Denver Center
Tue 09:46:39 PM 42.1564 -106.7875 129° Southeast 258 297 21,000  Level Denver Center
Tue 09:47:41 PM 42.0931 -106.6997 134° Southeast 255 293 21,000  Level Denver Center
Tue 09:48:42 PM 42.0469 -106.6489 141° Southeast 264 304 21,000  Level Denver Center
Tue 09:49:44 PM 41.9881 -106.5758 137° Southeast 255 293 21,000  Level Denver Center
Tue 09:50:45 PM 41.9319 -106.4972 134° Southeast 260 299 21,000  Level Denver Center
Tue 09:51:47 PM 41.8950 -106.4381 130° Southeast 261 300 21,000  Level Denver Center
Tue 09:52:48 PM 41.8331 -106.3461 132° Southeast 260 299 21,000 49 Level Denver Center
Tue 09:53:50 PM 41.7897 -106.2911 137° Southeast 266 306 21,100  Climbing Denver Center
Tue 09:54:52 PM 41.7217 -106.2061 137° Southeast 262 302 21,000 -49 Descending Denver Center
Tue 09:55:53 PM 41.6700 -106.1406 137° Southeast 265 305 21,000  Level Denver Center
Tue 09:56:55 PM 41.6164 -106.0803 140° Southeast 264 304 21,000  Level Denver Center
Tue 09:57:56 PM 41.5578 -106.0075 137° Southeast 260 299 21,000  Level Denver Center
Tue 09:58:58 PM 41.5061 -105.9414 136° Southeast 267 307 21,000  Level Denver Center
Tue 10:00:00 PM 41.4489 -105.8694 137° Southeast 267 307 21,000 49 Level Denver Center
Tue 10:01:01 PM 41.3992 -105.7956 132° Southeast 266 306 21,100 -49 Climbing Denver Center
Tue 10:02:03 PM 41.3372 -105.7236 139° Southeast 265 305 20,900 -49 Descending Denver Center
Tue 10:03:04 PM 41.2917 -105.6522 130° Southeast 263 303 21,000 49 Climbing Denver Center
Tue 10:04:06 PM 41.2464 -105.5828 131° Southeast 262 302 21,000  Level Denver Center
Tue 10:05:07 PM 41.1914 -105.4986 131° Southeast 267 307 21,000  Level Denver Center
Tue 10:06:09 PM 41.1461 -105.4269 130° Southeast 267 307 21,000 -927 Level Denver Center
Tue 10:07:10 PM 41.0953 -105.3381 127° Southeast 271 312 19,100 -1,805 Descending Denver Center
Tue 10:08:12 PM 41.0475 -105.2642 131° Southeast 275 316 17,300 -1,805 Descending Denver Center
Tue 10:09:13 PM 40.9917 -105.1881 134° Southeast 270 311 15,400 -1,902 Descending Denver Center
Tue 10:10:15 PM 40.9375 -105.1256 139° Southeast 261 300 13,400 -1,161 Descending Denver Center
Tue 10:11:17 PM 40.8836 -105.0583 137° Southeast 262 302 13,000 -195 Descending Denver Center
Tue 10:12:18 PM 40.8228 -104.9917 140° Southeast 277 319 13,000 49 Level Denver Center
Tue 10:13:19 PM 40.7567 -104.9344 147° Southeast 282 325 13,100 49 Climbing Denver Center
Tue 10:14:21 PM 40.6800 -104.8875 155° Southeast 282 325 13,100 -488 Level Denver Center
Tue 10:15:22 PM 40.6075 -104.8475 157° South 285 328 12,100 -1,220 Descending Denver Center
Tue 10:16:24 PM 40.5289 -104.7956 153° Southeast 288 331 10,600 -1,317 Descending Denver Center
Tue 10:17:25 PM 40.4633 -104.7461 150° Southeast 272 313 9,400 -787 Descending Denver Center
Tue 10:18:26 PM 40.4017 -104.6917 146° Southeast 269 310 9,000 -195 Descending Denver Center
Tue 10:19:28 PM 40.3300 -104.6544 158° South 276 318 9,000 49 Level Denver Center
Tue 10:20:29 PM 40.2447 -104.6575 182° South 284 327 9,100  Climbing Denver Center
Tue 10:21:31 PM 40.1672 -104.6556 179° South 280 322 9,000 -49 Descending Denver Center
Tue 10:22:32 PM 40.0892 -104.6581 181° South 281 323 9,000 -344 Level Denver Center
Tue 10:23:33 PM 40.0056 -104.6581 180° South 275 316 8,300 -1,024 Descending Denver Center
Tue 10:24:35 PM 39.9397 -104.6597 181° South 238 274 6,900 -1,111 Descending Denver Center
Tue 10:25:48 PM 39.8789 -104.6600 180° South 173 199 5,800 -667 Descending Denver Center
Tue 10:26:50 PM 39.8408 -104.6606 181° South 144 166 5,400 -387 Descending Denver Center
Tue 10:28:00 PM 39.8617 -104.6732 333° Northwest  Level Estimated
Tue 10:35:00 PM 39.8617 -104.6732 187° South  Level Estimated
Tue 10:36:00 PM 39.8617 -104.6732 187° South  Level Estimated
Tue 10:37:00 PM 39.8617 -104.6732 187° South  Level Estimated

Login

Don't have an account? Register now (free) for customized features, flight alerts, and more!